createdAt,value
2022-07-25T00:00:37.951Z,4.80
2022-07-25T00:03:10.770Z,7.57
2022-07-25T00:05:40.442Z,5.82
2022-07-25T00:08:08.364Z,7.88
2022-07-25T00:10:36.383Z,6.53
2022-07-25T00:13:04.468Z,5.43
2022-07-25T00:15:32.580Z,7.25
2022-07-25T00:18:00.626Z,9.43
2022-07-25T00:20:28.775Z,6.07
2022-07-25T00:22:58.102Z,4.50
2022-07-25T00:25:26.143Z,6.50
2022-07-25T00:27:54.157Z,6.43
2022-07-25T00:30:22.337Z,5.50
2022-07-25T00:32:50.324Z,7.03
2022-07-25T00:35:18.386Z,7.82
2022-07-25T00:37:46.366Z,5.45
2022-07-25T00:40:17.202Z,6.78
2022-07-25T00:42:45.202Z,10.93
2022-07-25T00:45:13.188Z,4.45
2022-07-25T00:47:41.178Z,7.05
2022-07-25T00:50:09.806Z,6.88
2022-07-25T00:52:38.014Z,6.90
2022-07-25T00:55:07.103Z,7.88
2022-07-25T00:57:36.608Z,10.20
2022-07-25T01:00:06.838Z,9.90
2022-07-25T01:02:34.942Z,6.82
2022-07-25T01:05:04.196Z,11.30
2022-07-25T01:07:32.932Z,9.25
2022-07-25T01:10:01.235Z,6.72
2022-07-25T01:12:29.233Z,6.07
2022-07-25T01:14:58.849Z,9.50
2022-07-25T01:17:26.805Z,8.30
2022-07-25T01:19:54.779Z,9.18
2022-07-25T01:22:24.101Z,6.85
2022-07-25T01:24:52.102Z,8.40
2022-07-25T01:27:20.071Z,7.32
2022-07-25T01:29:48.041Z,9.45
2022-07-25T01:32:15.972Z,10.82
2022-07-25T01:34:43.975Z,7.20
2022-07-25T01:37:11.924Z,7.72
2022-07-25T01:39:41.322Z,8.90
2022-07-25T01:42:09.335Z,6.72
2022-07-25T01:44:37.393Z,5.20
2022-07-25T01:47:05.605Z,9.20
2022-07-25T01:49:34.190Z,9.38
2022-07-25T01:52:02.366Z,7.50
2022-07-25T01:54:30.332Z,9.57
2022-07-25T01:57:03.963Z,6.60
2022-07-25T01:59:32.045Z,6.68
2022-07-25T02:02:00.455Z,5.20
2022-07-25T02:04:28.528Z,7.75
2022-07-25T02:06:57.154Z,8.70
2022-07-25T02:09:25.112Z,6.80
2022-07-25T02:11:54.535Z,5.25
2022-07-25T02:14:24.438Z,8.70
2022-07-25T02:16:52.672Z,6.15
2022-07-25T02:19:40.784Z,8.45
2022-07-25T02:22:09.127Z,8.82
2022-07-25T02:24:37.323Z,5.90
2022-07-25T02:27:05.744Z,10.40
2022-07-25T02:29:35.271Z,8.65
2022-07-25T02:32:03.382Z,8.43
2022-07-25T02:34:31.635Z,7.38
2022-07-25T02:36:59.618Z,11.65
2022-07-25T02:39:27.602Z,6.53
2022-07-25T02:41:55.649Z,8.57
2022-07-25T02:44:23.652Z,7.75
2022-07-25T02:46:53.371Z,8.65
2022-07-25T02:49:21.438Z,10.40
2022-07-25T02:51:49.437Z,7.72
2022-07-25T02:54:17.475Z,10.80
2022-07-25T02:56:45.653Z,8.63
2022-07-25T02:59:13.638Z,7.38
2022-07-25T03:01:41.690Z,8.43
2022-07-25T03:04:11.447Z,10.70
2022-07-25T03:06:39.705Z,9.40
2022-07-25T03:09:07.641Z,15.20
2022-07-25T03:11:35.782Z,7.80
2022-07-25T03:14:04.056Z,10.25
2022-07-25T03:16:32.278Z,11.32
2022-07-25T03:19:00.233Z,7.85
2022-07-25T03:21:29.736Z,8.32
2022-07-25T03:23:57.781Z,9.05
2022-07-25T03:26:26.067Z,8.70
2022-07-25T03:28:54.073Z,9.43
2022-07-25T03:31:22.247Z,10.05
2022-07-25T03:33:51.096Z,8.98
2022-07-25T03:36:19.383Z,14.70
2022-07-25T03:38:48.791Z,9.68
2022-07-25T03:41:16.825Z,9.32
2022-07-25T03:43:44.753Z,8.25
2022-07-25T03:46:12.932Z,18.80
2022-07-25T03:48:41.069Z,9.85
2022-07-25T03:51:09.081Z,11.10
2022-07-25T03:53:57.094Z,9.75
2022-07-25T03:56:26.472Z,9.77
2022-07-25T03:58:54.461Z,10.68
2022-07-25T04:01:22.575Z,11.50
2022-07-25T04:03:50.688Z,11.30
2022-07-25T04:06:18.721Z,10.55
2022-07-25T04:08:48.726Z,11.02
2022-07-25T04:11:16.941Z,11.82
2022-07-25T04:13:46.668Z,11.57
2022-07-25T04:16:16.870Z,11.07
2022-07-25T04:18:50.928Z,10.98
2022-07-25T04:21:19.822Z,12.45
2022-07-25T04:23:50.497Z,11.38
2022-07-25T04:26:18.862Z,13.05
2022-07-25T04:28:48.727Z,10.63
2022-07-25T04:31:16.817Z,11.98
2022-07-25T04:33:45.404Z,14.48
2022-07-25T04:36:13.865Z,15.80
2022-07-25T04:38:41.969Z,13.70
2022-07-25T04:41:10.011Z,10.05
2022-07-25T04:43:38.016Z,10.07
2022-07-25T04:46:07.732Z,12.00
2022-07-25T04:48:36.043Z,11.82
2022-07-25T04:51:04.133Z,13.38
2022-07-25T04:53:32.305Z,15.95
2022-07-25T04:56:00.282Z,9.68
2022-07-25T04:58:28.351Z,13.30
2022-07-25T05:00:56.356Z,12.27
2022-07-25T05:03:25.814Z,14.70
2022-07-25T05:05:53.793Z,9.85
2022-07-25T05:08:21.776Z,11.57
2022-07-25T05:10:49.801Z,11.38
2022-07-25T05:13:19.788Z,12.77
2022-07-25T05:15:47.707Z,10.73
2022-07-25T05:18:15.751Z,11.02
2022-07-25T05:20:45.058Z,14.23
2022-07-25T05:23:13.039Z,14.57
2022-07-25T05:25:41.046Z,16.98
2022-07-25T05:28:09.868Z,16.35
2022-07-25T05:30:46.945Z,12.52
2022-07-25T05:33:14.994Z,9.95
2022-07-25T05:35:44.478Z,12.88
2022-07-25T05:38:12.555Z,13.80
2022-07-25T05:40:43.674Z,13.90
2022-07-25T05:43:11.764Z,13.07
2022-07-25T05:45:39.706Z,10.32
2022-07-25T05:48:07.997Z,10.15
2022-07-25T05:50:38.010Z,14.25
2022-07-25T05:53:07.517Z,12.23
2022-07-25T05:55:35.601Z,12.43
2022-07-25T05:58:09.467Z,13.65
2022-07-25T06:00:37.602Z,11.02
2022-07-25T06:03:06.295Z,9.38
2022-07-25T06:05:39.744Z,7.72
2022-07-25T06:08:09.254Z,10.82
2022-07-25T06:10:37.437Z,7.55
2022-07-25T06:13:05.449Z,13.85
2022-07-25T06:15:34.341Z,7.93
2022-07-25T06:18:02.362Z,7.75
2022-07-25T06:20:30.360Z,8.27
2022-07-25T06:22:58.313Z,9.07
2022-07-25T06:25:28.024Z,7.40
2022-07-25T06:27:59.272Z,6.47
2022-07-25T06:30:27.319Z,9.48
2022-07-25T06:32:55.917Z,15.50
2022-07-25T06:35:24.388Z,8.80
2022-07-25T06:37:52.563Z,7.72
2022-07-25T06:40:23.781Z,7.38
2022-07-25T06:42:53.119Z,4.30
2022-07-25T06:45:21.099Z,6.03
2022-07-25T06:47:49.261Z,6.85
2022-07-25T06:50:21.352Z,6.28
2022-07-25T06:52:50.401Z,6.78
2022-07-25T06:55:18.992Z,5.68
2022-07-25T06:57:46.934Z,5.20
2022-07-25T07:00:21.836Z,4.10
2022-07-25T07:02:56.165Z,5.90
2022-07-25T07:05:25.059Z,7.47
2022-07-25T07:07:53.056Z,4.95
2022-07-25T07:10:22.599Z,3.63
2022-07-25T07:12:51.160Z,3.85
2022-07-25T07:15:20.674Z,2.90
2022-07-25T07:17:48.722Z,5.72
2022-07-25T07:20:16.839Z,4.10
2022-07-25T07:22:46.008Z,5.03
2022-07-25T07:25:15.073Z,6.00
2022-07-25T07:27:43.470Z,6.07
2022-07-25T07:30:12.486Z,3.70
2022-07-25T07:32:42.922Z,7.65
2022-07-25T07:35:12.226Z,7.43
2022-07-25T07:37:43.629Z,4.68
2022-07-25T07:40:16.942Z,8.70
2022-07-25T07:42:47.398Z,4.82
2022-07-25T07:45:17.004Z,7.35
2022-07-25T07:47:48.141Z,4.95
2022-07-25T07:50:17.255Z,5.15
2022-07-25T07:52:46.285Z,5.80
2022-07-25T07:55:32.295Z,6.55
2022-07-25T07:58:00.799Z,6.63
2022-07-25T08:00:31.020Z,6.70
2022-07-25T08:03:01.000Z,6.72
2022-07-25T08:05:31.092Z,5.00
2022-07-25T08:07:59.571Z,4.90
2022-07-25T08:10:29.907Z,6.25
2022-07-25T08:12:58.524Z,5.68
2022-07-25T08:15:27.059Z,11.35
2022-07-25T08:17:55.114Z,10.55
2022-07-25T08:20:40.171Z,5.28
2022-07-25T08:23:10.905Z,9.15
2022-07-25T08:25:39.295Z,4.07
2022-07-25T08:28:07.894Z,5.93
2022-07-25T08:30:37.274Z,9.13
2022-07-25T08:33:07.614Z,7.68
2022-07-25T08:35:37.025Z,8.35
2022-07-25T08:38:05.880Z,6.88
2022-07-25T08:40:35.185Z,9.88
2022-07-25T08:43:03.365Z,9.85
2022-07-25T08:45:31.619Z,10.63
2022-07-25T08:47:59.703Z,6.95
2022-07-25T08:50:30.148Z,7.47
2022-07-25T08:53:31.599Z,7.28
2022-07-25T08:55:47.731Z,9.43
2022-07-25T08:58:17.874Z,7.90
2022-07-25T09:00:46.692Z,7.18
2022-07-25T09:03:14.841Z,8.00
2022-07-25T09:05:44.162Z,11.55
2022-07-25T09:08:14.917Z,6.25
2022-07-25T09:10:48.428Z,19.80
2022-07-25T09:13:16.689Z,9.63
2022-07-25T09:15:50.867Z,5.63
2022-07-25T09:18:23.378Z,8.23
2022-07-25T09:20:53.177Z,9.18
2022-07-25T09:23:31.641Z,9.15
2022-07-25T09:26:04.524Z,6.32
2022-07-25T09:28:33.426Z,7.68
2022-07-25T09:31:03.136Z,10.48
2022-07-25T09:33:31.803Z,9.43
2022-07-25T09:36:12.233Z,8.18
2022-07-25T09:38:41.571Z,9.98
2022-07-25T09:41:09.671Z,10.48
2022-07-25T09:43:38.745Z,7.28
2022-07-25T09:46:10.247Z,5.13
2022-07-25T09:48:40.608Z,7.97
2022-07-25T09:51:08.788Z,5.38
2022-07-25T09:53:36.973Z,6.97
2022-07-25T09:56:06.988Z,9.43
2022-07-25T09:58:37.184Z,8.48
2022-07-25T10:01:07.747Z,8.20
2022-07-25T10:03:46.440Z,8.68
2022-07-25T10:06:21.385Z,7.60
2022-07-25T10:08:50.173Z,9.07
2022-07-25T10:11:23.426Z,7.53
2022-07-25T10:13:52.021Z,8.45
2022-07-25T10:16:21.556Z,11.50
2022-07-25T10:18:56.881Z,9.13
2022-07-25T10:21:27.899Z,6.32
2022-07-25T10:24:00.771Z,5.47
2022-07-25T10:26:30.817Z,6.38
2022-07-25T10:29:02.953Z,6.93
2022-07-25T10:31:37.021Z,5.63
2022-07-25T10:34:07.323Z,6.82
2022-07-25T10:36:46.346Z,8.35
2022-07-25T10:39:15.883Z,5.10
2022-07-25T10:41:50.576Z,5.97
2022-07-25T10:44:18.540Z,8.57
2022-07-25T10:46:47.186Z,8.45
2022-07-25T10:49:20.023Z,7.60
2022-07-25T10:51:57.481Z,9.40
2022-07-25T10:54:25.578Z,8.68
2022-07-25T10:56:57.309Z,6.13
2022-07-25T10:59:30.240Z,8.00
2022-07-25T11:01:58.299Z,14.25
2022-07-25T11:04:26.266Z,9.57
2022-07-25T11:06:54.231Z,14.18
2022-07-25T11:09:27.288Z,10.48
2022-07-25T11:11:58.561Z,11.13
2022-07-25T11:14:28.589Z,8.70
2022-07-25T11:16:57.043Z,10.63
2022-07-25T11:19:27.194Z,8.63
2022-07-25T11:21:58.153Z,8.90
2022-07-25T11:24:35.912Z,13.05
2022-07-25T11:27:11.267Z,14.38
2022-07-25T11:29:41.060Z,9.20
2022-07-25T11:32:10.880Z,12.10
2022-07-25T11:34:41.221Z,7.95
2022-07-25T11:37:11.654Z,11.02
2022-07-25T11:39:42.220Z,12.30
2022-07-25T11:42:16.768Z,21.67
2022-07-25T11:44:48.063Z,14.32
2022-07-25T11:47:27.699Z,13.10
2022-07-25T11:49:57.794Z,10.30
2022-07-25T11:52:29.788Z,11.68
2022-07-25T11:54:59.861Z,12.32
2022-07-25T11:57:31.623Z,19.08
2022-07-25T12:00:01.274Z,15.98
2022-07-25T12:02:36.728Z,14.57
2022-07-25T12:05:06.651Z,12.05
2022-07-25T12:07:39.267Z,8.18
2022-07-25T12:10:09.170Z,24.08
2022-07-25T12:12:49.675Z,11.77
2022-07-25T12:15:20.337Z,14.68
2022-07-25T12:17:48.822Z,11.68
2022-07-25T12:20:18.018Z,12.15
2022-07-25T12:22:49.492Z,11.00
2022-07-25T12:25:17.740Z,13.48
2022-07-25T12:27:47.318Z,15.55
2022-07-25T12:30:15.664Z,14.50
2022-07-25T12:32:44.583Z,10.52
2022-07-25T12:35:14.052Z,14.60
2022-07-25T12:37:42.748Z,12.27
2022-07-25T12:40:12.269Z,12.20
2022-07-25T12:42:40.690Z,10.88
2022-07-25T12:45:11.563Z,12.90
2022-07-25T12:47:39.663Z,13.68
2022-07-25T12:50:08.886Z,10.32
2022-07-25T12:52:37.873Z,14.02
2022-07-25T12:55:06.754Z,10.40
2022-07-25T12:57:36.404Z,10.45
2022-07-25T13:00:04.999Z,11.85
2022-07-25T13:02:34.377Z,11.15
2022-07-25T13:05:02.597Z,15.07
2022-07-25T13:07:30.764Z,10.77
2022-07-25T13:09:58.937Z,14.18
2022-07-25T13:12:26.931Z,8.30
2022-07-25T13:14:54.992Z,11.57
2022-07-25T13:17:27.137Z,9.98
2022-07-25T13:19:57.850Z,13.27
2022-07-25T13:22:34.067Z,12.85
2022-07-25T13:25:02.049Z,15.23
2022-07-25T13:27:30.301Z,8.52
2022-07-25T13:29:58.344Z,14.35
2022-07-25T13:32:28.423Z,13.85
2022-07-25T13:34:58.128Z,14.88
2022-07-25T13:37:26.311Z,8.73
2022-07-25T13:39:54.402Z,10.23
2022-07-25T13:42:22.482Z,8.90
2022-07-25T13:44:50.491Z,14.05
2022-07-25T13:47:21.119Z,10.68
2022-07-25T13:49:49.063Z,13.45
2022-07-25T13:52:18.395Z,14.32
2022-07-25T13:54:46.303Z,18.02
2022-07-25T13:57:14.278Z,19.75
2022-07-25T13:59:42.311Z,15.60
2022-07-25T14:02:10.648Z,13.65
2022-07-25T14:04:38.658Z,12.68
2022-07-25T14:07:07.531Z,10.00
2022-07-25T14:09:39.841Z,12.57
2022-07-25T14:12:08.145Z,8.75
2022-07-25T14:14:36.051Z,12.40
2022-07-25T14:17:04.099Z,11.30
2022-07-25T14:19:32.614Z,8.93
2022-07-25T14:22:05.752Z,9.82
2022-07-25T14:24:41.225Z,11.00
2022-07-25T14:27:11.433Z,10.57
2022-07-25T14:29:42.570Z,11.00
2022-07-25T14:32:10.687Z,9.43
2022-07-25T14:34:41.343Z,10.80
2022-07-25T14:37:12.309Z,8.57
2022-07-25T14:39:41.682Z,16.95
2022-07-25T14:42:12.210Z,13.60
2022-07-25T14:44:40.754Z,13.35
2022-07-25T14:47:12.450Z,11.45
2022-07-25T14:49:41.514Z,7.07
2022-07-25T14:52:09.517Z,7.88
2022-07-25T14:54:37.837Z,10.40
2022-07-25T14:57:10.751Z,11.38
2022-07-25T14:59:38.726Z,11.07
2022-07-25T15:02:06.802Z,8.23
2022-07-25T15:04:35.090Z,6.55
2022-07-25T15:07:03.241Z,8.63
2022-07-25T15:09:34.041Z,10.05
2022-07-25T15:12:02.045Z,9.73
2022-07-25T15:14:31.358Z,9.82
2022-07-25T15:16:59.397Z,8.32
2022-07-25T15:19:27.813Z,8.98
2022-07-25T15:21:56.038Z,9.80
2022-07-25T15:24:28.941Z,9.73
2022-07-25T15:26:57.339Z,5.80
2022-07-25T15:29:25.310Z,10.43
2022-07-25T15:31:54.968Z,9.60
2022-07-25T15:34:23.105Z,5.38
2022-07-25T15:36:52.073Z,7.32
2022-07-25T15:39:20.417Z,8.18
2022-07-25T15:41:48.296Z,6.32
2022-07-25T15:44:16.282Z,9.45
2022-07-25T15:46:44.266Z,11.30
2022-07-25T15:49:14.022Z,8.30
2022-07-25T15:51:42.173Z,9.73
2022-07-25T15:54:10.204Z,11.25
2022-07-25T15:56:38.785Z,9.75
2022-07-25T15:59:07.468Z,10.50
2022-07-25T16:01:38.548Z,11.35
2022-07-25T16:04:06.825Z,13.05
2022-07-25T16:06:36.285Z,10.05
2022-07-25T16:09:05.162Z,15.05
2022-07-25T16:11:33.669Z,12.93
2022-07-25T16:14:01.765Z,10.57
2022-07-25T16:16:29.867Z,12.85
2022-07-25T16:18:58.749Z,14.02
2022-07-25T16:21:27.242Z,8.13
2022-07-25T16:23:56.935Z,13.55
2022-07-25T16:26:25.117Z,9.02
2022-07-25T16:28:57.313Z,9.10
2022-07-25T16:31:27.329Z,12.05
2022-07-25T16:33:55.914Z,12.07
2022-07-25T16:36:25.316Z,11.63
2022-07-25T16:38:53.410Z,13.30
2022-07-25T16:41:22.803Z,13.30
2022-07-25T16:43:50.941Z,18.33
2022-07-25T16:46:19.290Z,11.73
2022-07-25T16:48:47.961Z,12.82
2022-07-25T16:51:15.944Z,14.05
2022-07-25T16:53:43.873Z,12.40
2022-07-25T16:56:11.987Z,14.77
2022-07-25T16:58:41.374Z,12.65
2022-07-25T17:01:09.467Z,14.88
2022-07-25T17:03:37.427Z,11.77
2022-07-25T17:06:05.725Z,12.05
2022-07-25T17:08:34.725Z,17.45
2022-07-25T17:11:03.382Z,15.23
2022-07-25T17:13:31.818Z,15.38
2022-07-25T17:16:01.178Z,12.70
2022-07-25T17:18:29.196Z,18.13
2022-07-25T17:20:57.137Z,15.45
2022-07-25T17:23:25.620Z,17.08
2022-07-25T17:25:54.643Z,20.23
2022-07-25T17:28:23.193Z,15.43
2022-07-25T17:30:51.677Z,13.60
2022-07-25T17:33:21.093Z,13.07
2022-07-25T17:35:49.440Z,17.20
2022-07-25T17:38:20.082Z,16.75
2022-07-25T17:40:51.966Z,49.08
2022-07-25T17:43:19.923Z,18.08
2022-07-25T17:45:48.062Z,21.88
2022-07-25T17:48:19.149Z,36.53
2022-07-25T17:50:52.306Z,22.17
2022-07-25T17:53:20.364Z,19.73
2022-07-25T17:55:48.481Z,17.73
2022-07-25T17:58:16.653Z,18.95
2022-07-25T18:00:44.810Z,22.00
2022-07-25T18:03:13.018Z,30.92
2022-07-25T18:05:41.246Z,18.92
2022-07-25T18:08:11.100Z,17.98
2022-07-25T18:10:39.120Z,18.92
2022-07-25T18:13:07.576Z,29.65
2022-07-25T18:15:35.754Z,22.30
2022-07-25T18:18:03.949Z,22.92
2022-07-25T18:20:31.929Z,22.67
2022-07-25T18:22:59.905Z,30.25
2022-07-25T18:25:32.707Z,60.28
2022-07-25T18:28:01.880Z,23.13
2022-07-25T18:30:29.954Z,14.73
2022-07-25T18:32:58.078Z,24.45
2022-07-25T18:35:26.708Z,21.02
2022-07-25T18:37:54.836Z,17.00
2022-07-25T18:40:22.877Z,19.10
2022-07-25T18:42:52.253Z,21.45
2022-07-25T18:45:20.735Z,21.30
2022-07-25T18:47:49.845Z,30.35
2022-07-25T18:50:21.058Z,22.00
2022-07-25T18:52:49.009Z,17.80
2022-07-25T18:55:17.070Z,17.92
2022-07-25T18:57:45.263Z,22.00
2022-07-25T19:00:15.267Z,19.45
2022-07-25T19:02:43.603Z,19.45
2022-07-25T19:05:11.644Z,25.25
2022-07-25T19:07:40.298Z,24.17
2022-07-25T19:10:08.614Z,22.95
2022-07-25T19:12:38.157Z,29.20
2022-07-25T19:15:08.883Z,38.85
2022-07-25T19:17:38.362Z,25.25
2022-07-25T19:20:07.560Z,42.38
2022-07-25T19:22:35.634Z,30.75
2022-07-25T19:25:07.630Z,25.95
2022-07-25T19:27:36.045Z,24.90
2022-07-25T19:30:06.957Z,26.83
2022-07-25T19:32:38.357Z,30.50
2022-07-25T19:35:07.793Z,21.20
2022-07-25T19:37:38.926Z,17.85
2022-07-25T19:40:08.311Z,15.80
2022-07-25T19:42:36.317Z,23.48
2022-07-25T19:45:04.762Z,21.98
2022-07-25T19:47:32.942Z,19.13
2022-07-25T19:50:02.302Z,25.30
2022-07-25T19:52:30.315Z,21.00
2022-07-25T19:54:58.635Z,16.17
2022-07-25T19:57:26.842Z,14.60
2022-07-25T19:59:55.141Z,17.27
2022-07-25T20:02:24.374Z,23.17
2022-07-25T20:04:53.094Z,19.63
2022-07-25T20:07:24.615Z,20.55
2022-07-25T20:09:52.595Z,16.90
2022-07-25T20:12:20.729Z,32.70
2022-07-25T20:14:48.761Z,18.13
2022-07-25T20:17:16.819Z,22.70
2022-07-25T20:19:45.094Z,23.48
2022-07-25T20:22:13.108Z,21.88
2022-07-25T20:24:42.472Z,18.90
2022-07-25T20:27:10.849Z,22.27
2022-07-25T20:29:38.889Z,18.98
2022-07-25T20:32:07.214Z,22.23
2022-07-25T20:34:35.406Z,122.03
2022-07-25T20:37:03.672Z,48.33
2022-07-25T20:39:31.893Z,32.53
2022-07-25T20:42:01.278Z,32.65
2022-07-25T20:44:29.288Z,21.17
2022-07-25T20:46:57.364Z,24.88
2022-07-25T20:49:25.586Z,23.50
2022-07-25T20:51:54.759Z,18.88
2022-07-25T20:54:23.062Z,22.35
2022-07-25T20:56:51.404Z,21.45
2022-07-25T20:59:20.859Z,18.55
2022-07-25T21:01:48.944Z,22.70
2022-07-25T21:04:18.771Z,27.60
2022-07-25T21:06:46.851Z,24.23
2022-07-25T21:09:15.181Z,21.65
2022-07-25T21:11:43.241Z,25.83
2022-07-25T21:14:11.431Z,24.38
2022-07-25T21:16:41.073Z,20.25
2022-07-25T21:19:09.473Z,28.55
2022-07-25T21:21:37.725Z,20.10
2022-07-25T21:24:06.427Z,22.70
2022-07-25T21:26:34.441Z,27.70
2022-07-25T21:29:02.403Z,31.98
2022-07-25T21:31:30.365Z,25.55
2022-07-25T21:33:59.797Z,29.75
2022-07-25T21:36:28.428Z,22.92
2022-07-25T21:38:57.228Z,22.65
2022-07-25T21:41:25.166Z,23.55
2022-07-25T21:43:53.155Z,18.25
2022-07-25T21:46:21.154Z,27.77
2022-07-25T21:49:07.351Z,26.95
2022-07-25T21:51:40.946Z,31.27
2022-07-25T21:54:09.505Z,30.63
2022-07-25T21:56:37.653Z,26.17
2022-07-25T21:59:06.408Z,19.33
2022-07-25T22:01:34.719Z,19.80
2022-07-25T22:04:02.741Z,34.90
2022-07-25T22:06:30.730Z,31.83
2022-07-25T22:09:00.239Z,23.08
2022-07-25T22:11:42.311Z,21.77
2022-07-25T22:14:15.090Z,28.38
2022-07-25T22:16:43.306Z,20.92
2022-07-25T22:19:11.648Z,24.92
2022-07-25T22:21:40.623Z,23.65
2022-07-25T22:24:10.498Z,29.33
2022-07-25T22:26:38.531Z,26.77
2022-07-25T22:29:06.861Z,27.17
2022-07-25T22:31:35.272Z,34.08
2022-07-25T22:34:03.366Z,33.65
2022-07-25T22:36:31.368Z,25.80
2022-07-25T22:38:59.526Z,25.40
2022-07-25T22:41:28.841Z,32.35
2022-07-25T22:43:59.691Z,28.15
2022-07-25T22:46:29.010Z,24.88
2022-07-25T22:48:57.881Z,20.88
2022-07-25T22:51:26.355Z,21.75
2022-07-25T22:53:54.366Z,22.83
2022-07-25T22:56:22.498Z,26.52
2022-07-25T22:58:51.922Z,21.95
2022-07-25T23:01:19.967Z,27.08
2022-07-25T23:03:49.938Z,28.42
2022-07-25T23:06:18.581Z,21.65
2022-07-25T23:08:46.669Z,33.42
2022-07-25T23:11:14.687Z,26.15
2022-07-25T23:13:42.683Z,22.88
2022-07-25T23:16:12.138Z,20.42
2022-07-25T23:18:40.446Z,24.77
2022-07-25T23:21:08.511Z,28.70
2022-07-25T23:23:37.369Z,25.02
2022-07-25T23:26:05.528Z,32.85
2022-07-25T23:28:33.556Z,27.25
2022-07-25T23:31:01.597Z,27.70
2022-07-25T23:33:31.537Z,24.25
2022-07-25T23:35:59.489Z,26.13
2022-07-25T23:38:27.529Z,31.33
2022-07-25T23:40:55.501Z,32.40
2022-07-25T23:43:29.334Z,30.25
2022-07-25T23:46:11.608Z,28.35
2022-07-25T23:48:41.033Z,31.75
2022-07-25T23:51:09.075Z,28.33
2022-07-25T23:53:37.349Z,25.23
2022-07-25T23:56:05.881Z,25.33
2022-07-25T23:58:33.876Z,30.70
